Time;durP1;ratioP1;P1;durP2;ratioP2;P2;SDS_P1;SDS_P2;PMS_P1;PMS_P2;Temp;Humidity;BMP_temperature;BMP_pressure;BME280_temperature;BME280_humidity;BME280_pressure;Samples;Min_cycle;Max_cycle;Signal;HPM_P1;HPM_P2
2022/10/06 00:00:15;;;;;;;0.03;0.03;;;;;;;-145.16;100.00;78285.10;645190;217;32375;-73
2022/10/06 00:06:14;;;;;;;0.40;0.40;;;;;;;-145.16;100.00;78315.31;645189;217;32427;-72
2022/10/06 00:12:15;;;;;;;0.43;0.13;;;;;;;-145.16;100.00;78306.25;645210;217;33375;-73
2022/10/06 00:18:18;;;;;;;1.00;0.40;;;;;;;-145.16;100.00;78340.48;653664;217;32347;-73
2022/10/06 00:24:24;;;;;;;1.00;0.40;;;;;;;-145.16;100.00;78357.61;645010;217;32360;-73
2022/10/06 00:30:24;;;;;;;0.50;0.50;;;;;;;-145.16;100.00;78362.64;645181;217;33326;-73
2022/10/06 00:36:24;;;;;;;0.50;0.27;;;;;;;-145.16;100.00;78367.67;653692;217;32453;-72
2022/10/06 00:42:25;;;;;;;1.30;1.20;;;;;;;-145.16;100.00;78370.70;653773;217;35302;-73
2022/10/06 00:48:27;;;;;;;0.10;0.10;;;;;;;-145.16;100.00;78386.81;645008;217;32325;-73
2022/10/06 00:54:29;;;;;;;1.40;0.40;;;;;;;-145.16;100.00;78420.05;645037;217;32390;-73
2022/10/06 01:00:29;;;;;;;2.00;1.20;;;;;;;-145.16;100.00;78433.13;645230;217;34338;-73
2022/10/06 01:06:29;;;;;;;0.10;0.10;;;;;;;-145.16;100.00;78440.18;645187;217;32351;-73
2022/10/06 01:12:31;;;;;;;0.20;0.20;;;;;;;-145.16;100.00;78481.47;645068;217;32376;-73
2022/10/06 01:18:31;;;;;;;0.30;0.20;;;;;;;-145.16;100.00;78492.55;645173;217;32430;-73
2022/10/06 01:24:38;;;;;;;0.20;0.20;;;;;;;-145.16;100.00;78514.70;645014;218;34280;-73
2022/10/06 01:30:38;;;;;;;0.10;0.10;;;;;;;-145.16;100.00;78506.65;653693;218;33336;-73
2022/10/06 01:36:38;;;;;;;0.00;0.00;;;;;;;-145.16;100.00;78514.70;645171;217;33341;-73
2022/10/06 01:42:39;;;;;;;0.17;0.13;;;;;;;-145.16;100.00;78521.75;645182;217;32409;-73
2022/10/06 01:48:39;;;;;;;0.40;0.40;;;;;;;-145.16;100.00;78543.91;645205;217;32379;-73
2022/10/06 01:54:39;;;;;;;0.33;0.33;;;;;;;-145.16;100.00;78554.98;645184;217;32310;-73
2022/10/06 02:00:39;;;;;;;0.50;0.50;;;;;;;-145.16;100.00;78580.16;645182;217;34582;-73
2022/10/06 02:06:39;;;;;;;0.10;0.10;;;;;;;-145.16;100.00;78589.22;653684;217;32379;-73
2022/10/06 02:12:39;;;;;;;6.10;0.60;;;;;;;-145.16;100.00;78613.39;645194;217;32362;-73
2022/10/06 02:18:40;;;;;;;0.00;0.00;;;;;;;-145.16;100.00;78628.50;645059;218;33367;-73
2022/10/06 02:24:41;;;;;;;0.50;0.50;;;;;;;-145.16;100.00;78658.72;645206;217;32393;-73
2022/10/06 02:30:41;;;;;;;0.10;0.10;;;;;;;-145.16;100.00;78682.89;653756;217;39097;-73
2022/10/06 02:36:41;;;;;;;2.60;0.70;;;;;;;-145.16;100.00;78706.05;645200;218;32382;-73
2022/10/06 02:42:41;;;;;;;1.20;0.50;;;;;;;-145.16;100.00;78719.14;645189;217;53796;-73
2022/10/06 02:48:41;;;;;;;0.10;0.10;;;;;;;-145.16;100.00;78751.37;645248;217;34321;-73
2022/10/06 02:54:42;;;;;;;4.50;0.30;;;;;;;-145.16;100.00;78762.45;645084;217;32466;-73
2022/10/06 03:00:42;;;;;;;1.00;0.60;;;;;;;-145.16;100.00;78784.60;645176;217;33623;-73
2022/10/06 03:06:42;;;;;;;0.00;0.00;;;;;;;-145.16;100.00;78778.56;645216;217;34342;-73
2022/10/06 03:12:42;;;;;;;0.00;0.00;;;;;;;-145.16;100.00;78796.69;645240;217;34321;-73
2022/10/06 03:18:42;;;;;;;0.30;0.30;;;;;;;-145.16;100.00;78802.73;645201;217;32398;-73
2022/10/06 03:24:42;;;;;;;2.20;0.10;;;;;;;-145.16;100.00;78826.91;653786;217;32828;-73
2022/10/06 03:30:43;;;;;;;0.00;0.00;;;;;;;-145.16;100.00;78835.97;645189;217;32333;-73
2022/10/06 03:36:42;;;;;;;1.50;0.20;;;;;;;-145.16;100.00;78866.19;653754;217;34333;-73
2022/10/06 03:42:43;;;;;;;0.10;0.10;;;;;;;-145.16;100.00;78882.30;653696;218;32400;-73
2022/10/06 03:48:43;;;;;;;0.00;0.00;;;;;;;-145.16;100.00;78887.33;653676;217;32426;-73
2022/10/06 03:54:42;;;;;;;0.10;0.10;;;;;;;-145.16;100.00;78901.44;645227;217;34313;-73
2022/10/06 04:00:43;;;;;;;1.40;0.60;;;;;;;-145.16;100.00;78928.63;645194;217;32364;-73
2022/10/06 04:06:43;;;;;;;0.20;0.20;;;;;;;-145.16;100.00;78937.69;645189;218;33301;-73
2022/10/06 04:12:43;;;;;;;0.10;0.10;;;;;;;-145.16;100.00;78938.70;645166;217;32360;-73
2022/10/06 04:18:47;;;;;;;1.23;0.80;;;;;;;-145.16;100.00;78974.95;653645;217;32360;-73
2022/10/06 04:24:47;;;;;;;0.35;0.35;;;;;;;-145.16;100.00;78966.90;645183;217;32369;-73
2022/10/06 04:30:47;;;;;;;1.20;1.20;;;;;;;-145.16;100.00;78986.04;653704;218;33343;-73
2022/10/06 04:36:47;;;;;;;2.70;0.50;;;;;;;-145.16;100.00;79000.14;645193;217;32708;-73
2022/10/06 04:42:48;;;;;;;0.10;0.10;;;;;;;-145.16;100.00;78992.08;645184;217;32356;-73
2022/10/06 04:48:49;;;;;;;0.30;0.30;;;;;;;-145.16;100.00;79030.35;645022;218;32666;-73
2022/10/06 04:54:51;;;;;;;0.00;0.00;;;;;;;-145.16;100.00;79043.45;645104;218;34551;-73
2022/10/06 05:00:51;;;;;;;0.10;0.10;;;;;;;-145.16;100.00;79058.55;645185;217;32360;-73
2022/10/06 05:06:51;;;;;;;0.10;0.10;;;;;;;-145.16;100.00;79070.64;645163;217;53810;-73
2022/10/06 05:12:51;;;;;;;0.10;0.10;;;;;;;-145.16;100.00;79096.83;653688;217;33359;-73
2022/10/06 05:18:51;;;;;;;0.63;0.63;;;;;;;-145.16;100.00;79093.81;653689;217;32307;-73
2022/10/06 05:24:52;;;;;;;0.10;0.10;;;;;;;-145.16;100.00;79105.89;645158;218;34323;-73
2022/10/06 05:30:52;;;;;;;0.77;0.77;;;;;;;-145.16;100.00;79127.05;653681;217;33363;-72
2022/10/06 05:36:53;;;;;;;0.00;0.00;;;;;;;-145.16;100.00;79129.06;645110;218;35280;-73
2022/10/06 05:42:53;;;;;;;0.60;0.60;;;;;;;-145.16;100.00;79165.32;645168;217;32370;-73
2022/10/06 05:48:54;;;;;;;0.47;0.30;;;;;;;-145.16;100.00;79176.40;645236;217;35292;-73
2022/10/06 05:54:54;;;;;;;0.30;0.30;;;;;;;-145.16;100.00;79168.34;643652;217;32545;-72
2022/10/06 06:00:56;;;;;;;0.30;0.30;;;;;;;-145.16;100.00;79165.32;647835;217;34445;-73
2022/10/06 06:06:56;;;;;;;0.00;0.00;;;;;;;-145.16;100.00;79171.36;645177;218;32364;-72
2022/10/06 06:12:56;;;;;;;0.10;0.10;;;;;;;-145.16;100.00;79142.16;645178;217;32389;-73
2022/10/06 06:18:56;;;;;;;0.10;0.10;;;;;;;-145.16;100.00;78952.80;653670;217;33345;-73
2022/10/06 06:24:56;;;;;;;0.60;0.60;;;;;;;-145.16;100.00;78836.97;645173;218;33390;-73
2022/10/06 06:30:56;;;;;;;0.10;0.10;;;;;;;-145.16;100.00;78704.03;653690;217;32364;-73
2022/10/06 06:36:57;;;;;;;0.10;0.10;;;;;;;-145.16;100.00;78503.63;653775;217;32399;-73
2022/10/06 06:42:59;;;;;;;0.90;0.50;;;;;;;-145.16;100.00;78537.86;645014;217;32372;-73
2022/10/06 06:49:03;;;;;;;1.35;0.95;;;;;;;-145.16;100.00;78433.13;645175;217;43106;-73
2022/10/06 06:55:01;;;;;;;0.70;0.70;;;;;;;-145.16;100.00;78438.17;653699;217;34609;-73
2022/10/06 07:01:02;;;;;;;2.60;1.05;;;;;;;-145.16;100.00;78340.48;645156;217;32393;-73
2022/10/06 07:07:04;;;;;;;0.40;0.40;;;;;;;-145.16;100.00;78283.09;640569;217;43302;-74
2022/10/06 07:13:05;;;;;;;0.40;0.40;;;;;;;-145.16;100.00;78301.22;653689;217;43074;-73
2022/10/06 07:25:26;;;;;;;0.43;0.43;;;;;;;-145.16;100.00;78107.88;653677;217;32430;-73
2022/10/06 07:31:32;;;;;;;0.70;0.70;;;;;;;-145.16;100.00;78237.77;645164;217;32371;-74
2022/10/06 07:37:27;;;;;;;3.60;0.80;;;;;;;-145.16;100.00;78092.77;645173;218;32382;-71
2022/10/06 07:43:27;;;;;;;1.33;0.75;;;;;;;-145.16;100.00;78078.67;645173;218;32378;-72
2022/10/06 07:49:27;;;;;;;0.90;0.80;;;;;;;-145.16;100.00;78126.00;645161;218;32378;-72
2022/10/06 07:55:27;;;;;;;0.75;0.62;;;;;;;-145.16;100.00;78077.67;645172;218;32378;-72
2022/10/06 08:01:28;;;;;;;0.20;0.20;;;;;;;-145.16;100.00;77898.44;645131;217;32440;-72
2022/10/06 08:07:27;;;;;;;0.80;0.60;;;;;;;-145.16;100.00;78034.38;653681;217;32356;-72
2022/10/06 08:13:31;;;;;;;0.47;0.47;;;;;;;-145.16;100.00;77971.95;645052;217;32357;-74
2022/10/06 08:19:31;;;;;;;2.45;0.77;;;;;;;-145.16;100.00;77986.05;645022;217;32381;-72
2022/10/06 08:25:31;;;;;;;0.93;0.93;;;;;;;-145.16;100.00;77857.16;653650;217;32364;-71
2022/10/06 08:31:33;;;;;;;0.80;0.60;;;;;;;-145.16;95.51;77862.20;653620;218;43108;-72
2022/10/06 08:37:33;;;;;;;1.20;1.10;;;;;;;-145.16;93.64;77881.33;645149;217;32460;-72
2022/10/06 08:43:33;;;;;;;1.40;1.30;;;;;;;-145.16;84.20;77644.72;645164;217;32362;-75
2022/10/06 08:49:33;;;;;;;2.10;0.50;;;;;;;-145.16;89.25;77758.48;645176;217;32334;-72
2022/10/06 08:55:36;;;;;;;0.40;0.40;;;;;;;-145.16;95.10;77854.14;641775;218;43287;-73
2022/10/06 09:01:42;;;;;;;0.60;0.60;;;;;;;-145.16;89.48;77776.61;656543;216;32334;-72
2022/10/06 09:07:42;;;;;;;0.70;0.70;;;;;;;-145.16;90.95;77838.03;645144;217;32367;-72
2022/10/06 09:13:44;;;;;;;1.37;0.70;;;;;;;-145.16;87.04;77933.69;653318;218;32370;-72
2022/10/06 09:19:44;;;;;;;1.70;0.60;;;;;;;-145.16;94.79;77920.59;655510;217;43056;-73
2022/10/06 09:25:44;;;;;;;8.10;1.60;;;;;;;-145.16;86.84;77918.58;653639;217;32348;-72
2022/10/06 09:31:49;;;;;;;1.12;1.12;;;;;;;-145.16;86.88;77923.61;645170;218;43070;-75
2022/10/06 09:37:45;;;;;;;0.88;0.73;;;;;;;-145.16;88.46;77906.50;645160;217;43063;-72
2022/10/06 09:43:50;;;;;;;0.57;0.57;;;;;;;-145.16;83.98;77845.08;645141;217;32380;-73
2022/10/06 09:49:49;;;;;;;0.90;0.90;;;;;;;-145.16;83.20;78034.38;645164;218;32356;-72
2022/10/06 09:55:51;;;;;;;0.40;0.40;;;;;;;-145.16;86.70;77974.97;645164;217;43057;-73
2022/10/06 10:01:51;;;;;;;0.90;0.90;;;;;;;-145.16;83.50;77921.59;645174;218;32652;-73
2022/10/06 10:07:51;;;;;;;0.85;0.85;;;;;;;-145.16;81.60;77954.83;645159;218;32414;-72
2022/10/06 10:13:51;;;;;;;0.80;0.65;;;;;;;-145.16;90.42;78289.13;645162;217;43361;-74
2022/10/06 10:19:52;;;;;;;2.20;1.10;;;;;;;-145.16;88.97;78109.89;645176;217;32373;-75
2022/10/06 10:25:53;;;;;;;0.30;0.30;;;;;;;-145.16;91.11;78029.34;645167;217;32360;-72
2022/10/06 10:32:01;;;;;;;1.05;0.55;;;;;;;-145.16;91.61;78204.55;645171;217;32373;-75
2022/10/06 10:38:11;;;;;;;1.90;1.40;;;;;;;-145.16;83.50;77937.71;645171;217;43155;-73
2022/10/06 10:44:14;;;;;;;0.70;0.70;;;;;;;-145.16;88.89;78102.84;641654;217;32451;-73
2022/10/06 10:50:16;;;;;;;1.48;0.93;;;;;;;-145.16;89.95;78148.16;650018;217;43076;-75
2022/10/06 10:56:16;;;;;;;0.30;0.30;;;;;;;-145.16;79.57;77907.50;653662;217;32298;-72
2022/10/06 11:02:19;;;;;;;3.20;0.60;;;;;;;-145.16;89.76;78381.77;645183;217;32351;-72
2022/10/06 11:08:21;;;;;;;3.50;1.00;;;;;;;-145.16;88.80;78208.57;641543;217;32547;-73
2022/10/06 11:14:21;;;;;;;2.90;0.77;;;;;;;-145.16;83.79;78044.44;653659;217;32361;-72
2022/10/06 11:20:24;;;;;;;1.60;1.10;;;;;;;-145.16;75.75;78087.73;637796;217;32524;-72
2022/10/06 11:23:29;;;;;;;0.40;0.40;;;;;;;-145.16;73.10;78031.35;617932;232;22700;-74
2022/10/06 11:29:13;;;;;;;0.90;0.90;;;;;;;-145.16;77.36;78120.97;645019;217;43143;-72
2022/10/06 11:35:16;;;;;;;1.00;0.90;;;;;;;-145.16;79.52;78111.91;653670;218;32368;-72
2022/10/06 11:41:17;;;;;;;2.00;0.90;;;;;;;-145.16;79.47;78190.45;650614;217;32470;-75
2022/10/06 11:47:18;;;;;;;1.05;0.43;;;;;;;-145.16;94.55;78365.66;636041;217;32392;-75
2022/10/06 11:53:37;;;;;;;1.05;0.85;;;;;;;-145.16;100.00;78376.73;639015;217;32468;-74
2022/10/06 11:56:49;;;;;;;0.20;0.20;;;;;;;-145.16;100.00;78331.42;621600;226;23746;-74
2022/10/06 12:02:40;;;;;;;2.50;1.10;;;;;;;-145.16;100.00;78368.69;653683;218;32335;-74
2022/10/06 12:08:46;;;;;;;1.50;0.40;;;;;;;-145.16;100.00;78337.47;653645;218;32686;-75
2022/10/06 12:14:53;;;;;;;4.32;0.70;;;;;;;-145.16;93.91;78344.52;639899;217;32834;-75
2022/10/06 12:20:52;;;;;;;2.70;0.68;;;;;;;-145.16;100.00;78414.00;641684;217;32485;-74
2022/10/06 12:26:54;;;;;;;0.20;0.20;;;;;;;-145.16;100.00;78318.33;644270;217;32409;-74
2022/10/06 12:32:55;;;;;;;0.30;0.30;;;;;;;-145.16;100.00;78270.00;645186;217;32363;-74
2022/10/06 12:38:55;;;;;;;0.73;0.35;;;;;;;-145.16;92.03;78216.63;631693;217;32600;-74
2022/10/06 12:45:10;;;;;;;0.30;0.30;;;;;;;-145.16;96.43;78201.52;645171;217;32328;-74
2022/10/06 12:51:10;;;;;;;1.40;0.40;;;;;;;-145.16;94.10;78190.45;653691;217;32360;-75
2022/10/06 12:57:14;;;;;;;1.10;0.80;;;;;;;-145.16;92.12;78233.75;653667;217;32349;-75
2022/10/06 13:03:14;;;;;;;0.90;0.60;;;;;;;-145.16;90.96;78203.54;645182;217;32369;-75
2022/10/06 13:09:14;;;;;;;0.30;0.30;;;;;;;-145.16;91.35;78230.72;645155;217;32385;-75
2022/10/06 13:15:28;;;;;;;0.20;0.20;;;;;;;-145.16;97.80;78357.61;645154;217;32373;-74
2022/10/06 13:21:27;;;;;;;0.68;0.45;;;;;;;-145.16;100.00;78420.05;644324;217;32344;-75
2022/10/06 13:27:26;;;;;;;4.25;0.85;;;;;;;-145.16;100.00;78410.98;644689;217;32378;-74
2022/10/06 13:33:30;;;;;;;0.30;0.30;;;;;;;-145.16;100.00;78419.03;643341;217;32382;-74
2022/10/06 13:39:30;;;;;;;2.90;0.60;;;;;;;-145.16;100.00;78447.23;648257;217;32780;-74
2022/10/06 13:45:30;;;;;;;0.40;0.40;;;;;;;-145.16;100.00;78447.23;645149;217;43112;-74
2022/10/06 13:51:30;;;;;;;0.25;0.25;;;;;;;-145.16;100.00;78457.30;653700;217;32317;-74
2022/10/06 13:57:35;;;;;;;0.62;0.62;;;;;;;-145.16;100.00;78473.41;645042;217;32320;-74
2022/10/06 14:03:35;;;;;;;0.60;0.60;;;;;;;-145.16;100.00;78438.17;645177;217;32416;-74
2022/10/06 14:09:36;;;;;;;0.77;0.47;;;;;;;-145.16;100.00;78418.03;645170;218;32397;-75
2022/10/06 14:15:36;;;;;;;1.87;0.40;;;;;;;-145.16;100.00;78448.23;653695;217;32348;-74
2022/10/06 14:21:40;;;;;;;1.83;1.48;;;;;;;-145.16;100.00;78476.44;645003;217;32388;-74
2022/10/06 14:27:39;;;;;;;0.30;0.30;;;;;;;-145.16;100.00;78475.43;645170;217;32359;-73
2022/10/06 14:33:41;;;;;;;0.35;0.35;;;;;;;-145.16;100.00;78420.05;653645;217;32675;-73
2022/10/06 14:39:41;;;;;;;0.50;0.40;;;;;;;-145.16;100.00;78497.58;645145;217;32362;-74
2022/10/06 14:45:41;;;;;;;0.80;0.80;;;;;;;-145.16;100.00;78501.61;653667;218;32376;-74
2022/10/06 14:51:41;;;;;;;0.20;0.20;;;;;;;-145.16;100.00;78577.14;643978;217;32306;-74
2022/10/06 14:57:41;;;;;;;0.20;0.20;;;;;;;-145.16;100.00;78528.80;645187;217;32641;-73
2022/10/06 15:03:41;;;;;;;3.70;1.10;;;;;;;-145.16;100.00;78578.15;645143;217;43092;-73
2022/10/06 15:09:42;;;;;;;0.40;0.40;;;;;;;-145.16;100.00;78592.25;645147;217;32358;-74
2022/10/06 15:15:41;;;;;;;0.20;0.20;;;;;;;-145.16;100.00;78595.27;653679;217;32407;-74
2022/10/06 15:21:43;;;;;;;0.40;0.40;;;;;;;-145.16;100.00;78632.53;645190;217;43446;-74
2022/10/06 15:34:00;;;;;;;0.20;0.20;;;;;;;-145.16;100.00;78624.47;645189;217;32320;-73
2022/10/06 15:40:03;;;;;;;0.10;0.10;;;;;;;-145.16;100.00;78629.52;642707;217;32538;-73
2022/10/06 15:46:03;;;;;;;0.10;0.10;;;;;;;-145.16;100.00;78640.59;636056;217;32565;-73
2022/10/06 15:52:04;;;;;;;0.15;0.15;;;;;;;-145.16;100.00;78660.73;645165;217;32404;-74
2022/10/06 15:58:05;;;;;;;0.10;0.10;;;;;;;-145.16;100.00;78717.13;645177;218;43110;-73
2022/10/06 16:04:10;;;;;;;0.10;0.10;;;;;;;-145.16;100.00;78713.09;646235;217;32529;-73
2022/10/06 16:10:08;;;;;;;0.20;0.20;;;;;;;-145.16;100.00;78749.35;641687;217;32347;-73
2022/10/06 16:16:13;;;;;;;0.00;0.00;;;;;;;-145.16;100.00;78724.17;653637;214;43092;-73
2022/10/06 16:22:13;;;;;;;0.10;0.10;;;;;;;-145.16;100.00;78717.13;645153;217;32634;-73
2022/10/06 16:28:13;;;;;;;0.10;0.10;;;;;;;-145.16;100.00;78745.33;645159;217;32369;-73
2022/10/06 16:34:14;;;;;;;0.10;0.10;;;;;;;-145.16;100.00;78727.20;645048;217;32382;-74
2022/10/06 16:40:16;;;;;;;0.10;0.10;;;;;;;-145.16;100.00;78763.45;645156;217;32367;-73
2022/10/06 16:46:16;;;;;;;0.10;0.10;;;;;;;-145.16;100.00;78798.70;645177;217;32380;-73
2022/10/06 16:52:16;;;;;;;0.90;0.90;;;;;;;-145.16;100.00;78830.94;645188;217;32332;-73
2022/10/06 16:58:16;;;;;;;0.10;0.10;;;;;;;-145.16;100.00;78882.30;645191;217;43029;-73
2022/10/06 17:04:16;;;;;;;0.10;0.10;;;;;;;-145.16;100.00;78928.63;645190;218;32365;-73
2022/10/06 17:10:18;;;;;;;0.10;0.10;;;;;;;-145.16;100.00;78955.82;641665;217;32305;-73
2022/10/06 17:16:22;;;;;;;0.00;0.00;;;;;;;-145.16;100.00;79000.14;641990;217;32339;-73
2022/10/06 17:22:25;;;;;;;0.10;0.10;;;;;;;-145.16;100.00;78972.94;645081;217;34301;-73
2022/10/06 17:28:25;;;;;;;0.00;0.00;;;;;;;-145.16;100.00;79013.23;653768;217;34385;-73
2022/10/06 17:34:25;;;;;;;0.10;0.10;;;;;;;-145.16;100.00;79030.35;653716;217;32363;-73
2022/10/06 17:40:26;;;;;;;0.10;0.10;;;;;;;-145.16;100.00;79051.50;645184;217;32362;-73
2022/10/06 17:46:26;;;;;;;0.00;0.00;;;;;;;-145.16;100.00;79115.97;644805;218;32359;-73
2022/10/06 17:52:25;;;;;;;0.10;0.10;;;;;;;-145.16;100.00;79097.84;653683;217;32372;-73
2022/10/06 17:58:25;;;;;;;0.10;0.10;;;;;;;-145.16;100.00;79107.91;647237;217;35330;-73
2022/10/06 18:04:25;;;;;;;0.08;0.08;;;;;;;-145.16;100.00;79099.85;643781;217;32350;-72
2022/10/06 18:16:44;;;;;;;0.10;0.10;;;;;;;-145.16;100.00;79214.67;642015;217;32348;-72
2022/10/06 18:22:45;;;;;;;0.00;0.00;;;;;;;-145.16;100.00;79235.83;635545;217;34545;-73
2022/10/06 18:28:45;;;;;;;0.00;0.00;;;;;;;-145.16;100.00;79202.59;642181;217;34172;-73
2022/10/06 18:34:44;;;;;;;0.10;0.10;;;;;;;-145.16;100.00;79235.83;645171;217;33327;-73
2022/10/06 18:40:45;;;;;;;0.00;0.00;;;;;;;-145.16;100.00;79247.91;645186;218;32361;-72
2022/10/06 18:53:42;;;;;;;0.10;0.10;;;;;;;-145.16;100.00;79243.89;645198;217;34310;-72
2022/10/06 19:00:02;;;;;;;0.30;0.30;;;;;;;-145.16;100.00;79251.95;653665;217;32378;-72
2022/10/06 19:06:20;;;;;;;0.00;0.00;;;;;;;-145.16;100.00;79268.06;645277;217;33337;-73
2022/10/06 19:12:39;;;;;;;0.00;0.00;;;;;;;-145.16;100.00;79275.11;653755;217;35340;-72
2022/10/06 19:19:09;;;;;;;0.00;0.00;;;;;;;-145.16;100.00;79271.09;653655;218;32307;-72
2022/10/06 19:25:23;;;;;;;0.00;0.00;;;;;;;-145.16;100.00;79275.11;653693;218;32315;-73
2022/10/06 19:31:42;;;;;;;0.10;0.10;;;;;;;-145.16;100.00;79286.19;653684;218;32385;-72
2022/10/06 19:38:02;;;;;;;0.10;0.10;;;;;;;-145.16;100.00;79330.52;645057;217;32368;-72
2022/10/06 19:44:20;;;;;;;0.00;0.00;;;;;;;-145.16;100.00;79323.46;653749;217;34316;-72
2022/10/06 19:50:41;;;;;;;0.00;0.00;;;;;;;-145.16;100.00;79352.67;645017;217;33644;-73
2022/10/06 19:56:59;;;;;;;0.00;0.00;;;;;;;-145.16;100.00;79359.72;653687;218;32410;-72
2022/10/06 20:03:19;;;;;;;0.00;0.00;;;;;;;-145.16;100.00;79381.89;645192;217;32398;-73
2022/10/06 20:09:36;;;;;;;0.00;0.00;;;;;;;-145.16;100.00;79386.92;645185;217;32426;-73
2022/10/06 20:15:54;;;;;;;0.30;0.30;;;;;;;-145.16;100.00;79400.02;645179;217;32363;-72
2022/10/06 20:22:12;;;;;;;0.00;0.00;;;;;;;-145.16;100.00;79403.04;645176;217;32410;-72
2022/10/06 20:28:30;;;;;;;0.00;0.00;;;;;;;-145.16;100.00;79383.90;645189;217;34293;-72
2022/10/06 20:34:49;;;;;;;0.00;0.00;;;;;;;-145.16;100.00;79381.89;645174;217;32358;-73
2022/10/06 20:41:07;;;;;;;0.15;0.15;;;;;;;-145.16;100.00;79395.98;645174;217;32635;-72
2022/10/06 20:47:25;;;;;;;0.10;0.10;;;;;;;-145.16;100.00;79381.89;653688;217;32349;-72
2022/10/06 20:53:43;;;;;;;0.10;0.10;;;;;;;-145.16;100.00;79368.79;645183;218;33299;-72
2022/10/06 21:00:04;;;;;;;0.00;0.00;;;;;;;-145.16;100.00;79365.77;645132;218;32959;-72
2022/10/06 21:06:22;;;;;;;0.00;0.00;;;;;;;-145.16;100.00;79348.64;653688;217;32354;-72
2022/10/06 21:12:41;;;;;;;0.00;0.00;;;;;;;-145.16;100.00;79353.68;645202;217;33293;-72
2022/10/06 21:19:00;;;;;;;0.00;0.00;;;;;;;-145.16;100.00;79354.69;653682;217;32357;-72
2022/10/06 21:25:18;;;;;;;0.00;0.00;;;;;;;-145.16;100.00;79372.82;645247;217;34362;-72
2022/10/06 21:31:37;;;;;;;0.00;0.00;;;;;;;-145.16;100.00;79377.86;645219;217;34321;-72
2022/10/06 21:37:55;;;;;;;1.50;1.40;;;;;;;-145.16;100.00;79381.89;645196;217;32368;-72
2022/10/06 21:44:14;;;;;;;0.37;0.37;;;;;;;-145.16;100.00;79384.91;645210;217;32359;-72
2022/10/06 21:50:34;;;;;;;0.00;0.00;;;;;;;-145.16;100.00;79371.81;645021;217;32370;-72
2022/10/06 21:56:55;;;;;;;0.00;0.00;;;;;;;-145.16;100.00;79365.77;653667;217;32311;-73
2022/10/06 22:03:13;;;;;;;0.00;0.00;;;;;;;-145.16;100.00;79366.78;645233;217;35325;-72
2022/10/06 22:09:33;;;;;;;0.30;0.30;;;;;;;-145.16;100.00;79369.80;653645;217;32376;-72
2022/10/06 22:15:53;;;;;;;0.00;0.00;;;;;;;-145.16;100.00;79376.84;645024;217;32420;-72
2022/10/06 22:22:11;;;;;;;0.10;0.10;;;;;;;-145.16;100.00;79393.97;645190;217;32352;-72
2022/10/06 22:28:30;;;;;;;0.00;0.00;;;;;;;-145.16;100.00;79404.05;645242;217;34365;-72
2022/10/06 22:34:48;;;;;;;0.10;0.10;;;;;;;-145.16;100.00;79404.05;653737;217;40861;-72
2022/10/06 22:41:07;;;;;;;0.00;0.00;;;;;;;-145.16;100.00;79423.19;645168;217;33299;-73
2022/10/06 22:47:25;;;;;;;0.00;0.00;;;;;;;-145.16;100.00;79410.09;645179;218;32371;-72
2022/10/06 22:53:43;;;;;;;0.13;0.13;;;;;;;-145.16;100.00;79432.25;645190;217;32371;-72
2022/10/06 23:00:03;;;;;;;0.00;0.00;;;;;;;-145.16;100.00;79435.27;645073;217;32677;-72
2022/10/06 23:06:21;;;;;;;0.00;0.00;;;;;;;-145.16;100.00;79453.41;645191;217;32332;-72
2022/10/06 23:12:40;;;;;;;0.00;0.00;;;;;;;-145.16;100.00;79440.31;645173;218;33624;-73
2022/10/06 23:18:59;;;;;;;0.40;0.30;;;;;;;-145.16;100.00;79439.30;653659;218;33363;-73
2022/10/06 23:25:17;;;;;;;0.20;0.20;;;;;;;-145.16;100.00;79442.33;645181;217;33350;-72
2022/10/06 23:31:35;;;;;;;0.00;0.00;;;;;;;-145.16;100.00;79453.41;653680;217;32313;-72
2022/10/06 23:37:54;;;;;;;0.00;0.00;;;;;;;-145.16;100.00;79443.33;645148;218;33388;-73
2022/10/06 23:44:12;;;;;;;0.20;0.20;;;;;;;-145.16;100.00;79442.33;653651;217;32372;-73
2022/10/06 23:50:31;;;;;;;0.00;0.00;;;;;;;-145.16;100.00;79445.34;645183;217;33300;-72
2022/10/06 23:56:52;;;;;;;0.20;0.20;;;;;;;-145.16;100.00;79461.46;645016;217;33342;-72
